Time;durP1;ratioP1;P1;durP2;ratioP2;P2;SDS_P1;SDS_P2;PMS_P1;PMS_P2;Temp;Humidity;BMP_temperature;BMP_pressure;BME280_temperature;BME280_humidity;BME280_pressure;Samples;Min_cycle;Max_cycle;Signal;HPM_P1;HPM_P2
2023/12/24 00:00:37;;;;;;;1999.90;999.90;;;10.50;99.90;;;;;;5012357;28;20190;-70
2023/12/24 00:03:04;;;;;;;1999.90;999.90;;;10.50;99.90;;;;;;5012313;28;20169;-70
2023/12/24 00:05:29;;;;;;;1999.90;999.90;;;10.40;99.90;;;;;;5018909;28;20171;-71
2023/12/24 00:07:55;;;;;;;1999.90;999.90;;;10.40;99.90;;;;;;5037464;28;20425;-71
2023/12/24 00:10:21;;;;;;;1999.90;999.90;;;10.40;99.90;;;;;;5019637;28;20223;-70
2023/12/24 00:12:46;;;;;;;1999.90;999.90;;;10.30;99.90;;;;;;5020768;28;20195;-69
2023/12/24 00:15:12;;;;;;;1999.90;999.90;;;10.30;99.90;;;;;;5021684;28;20178;-71
2023/12/24 00:17:37;;;;;;;1999.90;999.90;;;10.30;99.90;;;;;;5020316;28;20521;-71
2023/12/24 00:20:04;;;;;;;1999.90;999.90;;;10.30;99.90;;;;;;5019361;28;20632;-70
2023/12/24 00:22:30;;;;;;;1999.90;999.90;;;;;;;;;;5019827;28;20603;-71
2023/12/24 00:24:55;;;;;;;1999.90;999.90;;;10.20;99.90;;;;;;5020724;28;20487;-71
2023/12/24 00:27:21;;;;;;;1999.90;999.90;;;10.20;99.90;;;;;;5020745;28;20944;-71
2023/12/24 00:29:47;;;;;;;1999.90;999.90;;;10.20;99.90;;;;;;5021338;28;20223;-70
2023/12/24 00:32:12;;;;;;;1999.90;999.90;;;10.10;99.90;;;;;;5019004;28;20193;-71
2023/12/24 00:34:38;;;;;;;1999.90;999.90;;;10.10;99.90;;;;;;5021921;28;20171;-71
2023/12/24 00:37:03;;;;;;;1999.90;999.90;;;10.20;99.90;;;;;;5019749;28;20178;-70
2023/12/24 00:39:29;;;;;;;1999.90;999.90;;;10.20;99.90;;;;;;5020018;28;20160;-69
2023/12/24 00:41:54;;;;;;;1999.90;999.90;;;10.10;99.90;;;;;;5012233;28;20191;-70
2023/12/24 00:44:20;;;;;;;1999.90;999.90;;;10.10;99.90;;;;;;5012473;28;20179;-70
2023/12/24 00:46:47;;;;;;;1999.90;999.90;;;10.10;99.90;;;;;;5012541;28;20540;-70
2023/12/24 00:49:13;;;;;;;1999.90;999.90;;;10.00;99.90;;;;;;5012616;28;20175;-70
2023/12/24 00:51:43;;;;;;;1999.90;999.90;;;10.00;99.90;;;;;;5012486;28;21002;-69
2023/12/24 00:54:10;;;;;;;1999.90;999.90;;;9.90;99.90;;;;;;5016832;28;20887;-71
2023/12/24 00:56:35;;;;;;;1999.90;999.90;;;9.90;99.90;;;;;;5020825;28;20414;-70
2023/12/24 00:59:01;;;;;;;1999.90;999.90;;;9.90;99.90;;;;;;5013847;28;20417;-70
2023/12/24 01:01:26;;;;;;;1999.90;999.90;;;9.90;99.90;;;;;;5011914;28;20187;-70
2023/12/24 01:03:52;;;;;;;1999.90;999.90;;;9.80;99.90;;;;;;5012505;28;20238;-70
2023/12/24 01:06:18;;;;;;;1999.90;999.90;;;;;;;;;;5016603;28;20167;-70
2023/12/24 01:08:43;;;;;;;1999.90;999.90;;;9.80;99.90;;;;;;5020547;28;20193;-70
2023/12/24 01:11:09;;;;;;;1999.90;999.90;;;9.90;99.90;;;;;;5021161;28;20434;-71
2023/12/24 01:13:35;;;;;;;1999.90;999.90;;;9.90;99.90;;;;;;5017455;28;20205;-70
2023/12/24 01:16:03;;;;;;;1999.90;999.90;;;9.90;99.90;;;;;;5011705;28;20207;-69
2023/12/24 01:18:29;;;;;;;1999.90;999.90;;;9.80;99.90;;;;;;5011609;28;20167;-68
2023/12/24 01:20:56;;;;;;;1999.90;999.90;;;9.80;99.90;;;;;;5018709;28;20536;-70
2023/12/24 01:23:22;;;;;;;1999.90;999.90;;;9.80;99.90;;;;;;5032796;28;20186;-69
2023/12/24 01:25:48;;;;;;;1999.90;999.90;;;9.90;99.90;;;;;;5013576;28;20409;-70
2023/12/24 01:28:14;;;;;;;1999.90;999.90;;;10.00;99.90;;;;;;5023959;28;20413;-71
2023/12/24 01:30:40;;;;;;;1999.90;999.90;;;10.10;99.90;;;;;;5023100;28;20191;-71
2023/12/24 01:33:06;;;;;;;1999.90;999.90;;;10.00;99.90;;;;;;5017208;28;20889;-69
2023/12/24 01:35:31;;;;;;;1999.90;999.90;;;10.00;99.90;;;;;;5015708;28;20512;-70
2023/12/24 01:37:57;;;;;;;1999.90;999.90;;;10.10;99.90;;;;;;5015295;28;20254;-70
2023/12/24 01:40:23;;;;;;;1999.90;999.90;;;10.10;99.90;;;;;;5014850;28;20655;-70
2023/12/24 01:42:48;;;;;;;1999.90;999.90;;;10.10;99.90;;;;;;5014942;28;20176;-70
2023/12/24 01:45:14;;;;;;;1999.90;999.90;;;10.10;99.90;;;;;;5014961;28;20179;-70
2023/12/24 01:47:41;;;;;;;1999.90;999.90;;;10.10;99.90;;;;;;5014925;28;20179;-70
2023/12/24 01:50:07;;;;;;;1999.90;999.90;;;9.90;99.90;;;;;;5017152;28;20174;-71
2023/12/24 01:52:33;;;;;;;1999.90;999.90;;;10.10;99.90;;;;;;5032344;28;20492;-70
2023/12/24 01:54:59;;;;;;;1999.90;999.90;;;10.00;99.90;;;;;;5015295;28;20450;-69
2023/12/24 01:57:29;;;;;;;1999.90;999.90;;;10.00;99.90;;;;;;5015239;28;20411;-69
2023/12/24 01:59:55;;;;;;;1999.90;999.90;;;10.20;99.90;;;;;;5015202;28;20763;-70
2023/12/24 02:02:21;;;;;;;1999.90;999.90;;;10.00;99.90;;;;;;5014861;28;20414;-69
2023/12/24 02:04:48;;;;;;;1999.90;999.90;;;10.00;99.90;;;;;;5014830;28;21105;-70
2023/12/24 02:07:15;;;;;;;1999.90;999.90;;;10.00;99.90;;;;;;5014983;28;20413;-70
2023/12/24 02:09:42;;;;;;;1999.90;999.90;;;10.00;99.90;;;;;;5014846;28;20840;-69
2023/12/24 02:12:08;;;;;;;1999.90;999.90;;;10.00;99.90;;;;;;5029392;28;20429;-70
2023/12/24 02:14:34;;;;;;;1999.90;999.90;;;10.00;99.90;;;;;;5014308;28;20451;-70
2023/12/24 02:17:01;;;;;;;1999.90;999.90;;;10.20;99.90;;;;;;5014316;28;20171;-70
2023/12/24 02:19:27;;;;;;;1999.90;999.90;;;10.00;99.90;;;;;;5014387;28;20168;-70
2023/12/24 02:21:52;;;;;;;1999.90;999.90;;;10.10;99.90;;;;;;5013936;28;20522;-70
2023/12/24 02:24:18;;;;;;;1999.90;999.90;;;10.10;99.90;;;;;;5014199;28;20411;-70
2023/12/24 02:27:03;;;;;;;1999.90;999.90;;;10.10;99.90;;;;;;5029394;28;20180;-70
2023/12/24 02:29:41;;;;;;;1999.90;999.90;;;10.10;99.90;;;;;;5029427;28;20595;-70
2023/12/24 02:32:17;;;;;;;1999.90;999.90;;;10.10;99.90;;;;;;4994234;28;20439;-70
2023/12/24 02:34:45;;;;;;;1999.90;999.90;;;10.00;99.90;;;;;;4994429;28;20450;-70
2023/12/24 02:37:12;;;;;;;1999.90;999.90;;;10.00;99.90;;;;;;4994355;28;20402;-70
2023/12/24 02:39:39;;;;;;;1999.90;999.90;;;10.00;99.90;;;;;;4993845;28;20470;-70
2023/12/24 02:42:06;;;;;;;1999.90;999.90;;;10.10;99.90;;;;;;4994037;28;20433;-70
2023/12/24 02:44:32;;;;;;;1999.90;999.90;;;10.00;99.90;;;;;;4994310;28;20802;-69
2023/12/24 02:46:58;;;;;;;1999.90;999.90;;;10.00;99.90;;;;;;4994358;28;20497;-68
2023/12/24 02:49:24;;;;;;;1999.90;999.90;;;10.00;99.90;;;;;;4994188;28;20493;-69
2023/12/24 02:51:49;;;;;;;1999.90;999.90;;;10.00;99.90;;;;;;4993822;28;20282;-70
2023/12/24 02:54:15;;;;;;;1999.90;999.90;;;10.10;99.90;;;;;;4994017;28;20245;-68
2023/12/24 02:56:40;;;;;;;1999.90;999.90;;;9.90;99.90;;;;;;4994084;28;20540;-69
2023/12/24 02:59:06;;;;;;;1999.90;999.90;;;9.90;99.90;;;;;;4994050;28;20174;-69
2023/12/24 03:01:32;;;;;;;1999.90;999.90;;;9.80;99.90;;;;;;4993666;28;20188;-69
2023/12/24 03:03:58;;;;;;;1999.90;999.90;;;9.90;99.90;;;;;;4993871;28;20178;-69
2023/12/24 03:06:24;;;;;;;1999.90;999.90;;;9.80;99.90;;;;;;4994251;28;20171;-70
2023/12/24 03:08:49;;;;;;;1999.90;999.90;;;9.90;99.90;;;;;;4994343;28;20425;-70
2023/12/24 03:11:15;;;;;;;1999.90;999.90;;;9.80;99.90;;;;;;4993982;28;20201;-70
2023/12/24 03:13:41;;;;;;;1999.90;999.90;;;9.80;99.90;;;;;;4994137;28;20250;-70
2023/12/24 03:16:06;;;;;;;1999.90;999.90;;;9.80;99.90;;;;;;4994427;28;20171;-70
2023/12/24 03:18:32;;;;;;;1999.90;999.90;;;10.00;99.90;;;;;;4994349;28;20211;-69
2023/12/24 03:21:00;;;;;;;1999.90;999.90;;;;;;;;;;4997378;28;20287;-69
2023/12/24 03:23:26;;;;;;;1999.90;999.90;;;9.80;99.90;;;;;;5006108;28;20185;-69
2023/12/24 03:25:53;;;;;;;1999.90;999.90;;;9.80;99.90;;;;;;5006396;28;20427;-69
2023/12/24 03:28:18;;;;;;;1999.90;999.90;;;9.90;99.90;;;;;;5007337;28;20186;-70
2023/12/24 03:30:44;;;;;;;1999.90;999.90;;;9.90;99.90;;;;;;5006600;28;20425;-69
2023/12/24 03:33:10;;;;;;;1999.90;999.90;;;9.90;99.90;;;;;;5008397;28;20229;-71
2023/12/24 03:35:36;;;;;;;1999.90;999.90;;;9.90;99.90;;;;;;5023824;28;20257;-69
2023/12/24 03:38:02;;;;;;;1999.90;999.90;;;9.90;99.90;;;;;;5006835;28;20401;-71
2023/12/24 03:40:28;;;;;;;1999.90;999.90;;;9.90;99.90;;;;;;5021961;28;20192;-71
2023/12/24 03:42:54;;;;;;;1999.90;999.90;;;;;;;;;;5008605;28;20411;-71
2023/12/24 03:45:19;;;;;;;1999.90;999.90;;;9.90;99.90;;;;;;5005237;28;20548;-71
2023/12/24 03:47:45;;;;;;;1999.90;999.90;;;10.00;99.90;;;;;;4996706;28;20501;-69
2023/12/24 03:50:10;;;;;;;1999.90;999.90;;;10.10;99.90;;;;;;4992054;28;20205;-69
2023/12/24 03:52:36;;;;;;;1999.90;999.90;;;9.90;99.90;;;;;;4993277;28;20224;-68
2023/12/24 03:55:01;;;;;;;1999.90;999.90;;;9.90;99.90;;;;;;5007997;28;20646;-68
2023/12/24 03:57:27;;;;;;;1999.90;999.90;;;9.90;99.90;;;;;;4993001;28;20173;-68
2023/12/24 03:59:53;;;;;;;1999.90;999.90;;;9.80;99.90;;;;;;4993399;28;20230;-68
2023/12/24 04:02:18;;;;;;;1999.90;999.90;;;9.80;99.90;;;;;;4992673;28;20193;-69
2023/12/24 04:04:47;;;;;;;1999.90;999.90;;;9.80;99.90;;;;;;4993106;28;20175;-69
2023/12/24 04:07:15;;;;;;;1999.90;999.90;;;9.80;99.90;;;;;;4993001;28;20413;-69
2023/12/24 04:09:42;;;;;;;1999.90;999.90;;;9.80;99.90;;;;;;4992679;28;20990;-70
2023/12/24 04:12:08;;;;;;;1999.90;999.90;;;9.70;99.90;;;;;;4995369;28;20435;-71
2023/12/24 04:14:37;;;;;;;1999.90;999.90;;;9.80;99.90;;;;;;5011152;28;20463;-71
2023/12/24 04:17:03;;;;;;;1999.90;999.90;;;9.70;99.90;;;;;;4996323;28;20775;-69
2023/12/24 04:19:29;;;;;;;1999.90;999.90;;;9.70;99.90;;;;;;4993276;28;20506;-68
2023/12/24 04:21:54;;;;;;;1999.90;999.90;;;9.70;99.90;;;;;;4992313;28;20477;-68
2023/12/24 04:24:20;;;;;;;1999.90;999.90;;;9.90;99.90;;;;;;4991591;28;20180;-69
2023/12/24 04:26:46;;;;;;;1999.90;999.90;;;9.70;99.90;;;;;;4992583;28;20230;-69
2023/12/24 04:29:12;;;;;;;1999.90;999.90;;;9.70;99.90;;;;;;4992494;28;20176;-69
2023/12/24 04:31:39;;;;;;;1999.90;999.90;;;9.70;99.90;;;;;;4994672;28;20575;-71
2023/12/24 04:34:06;;;;;;;1999.90;999.90;;;9.70;99.90;;;;;;4994307;28;20453;-68
2023/12/24 04:36:35;;;;;;;1999.90;999.90;;;9.70;99.90;;;;;;4992554;28;20418;-69
2023/12/24 04:39:01;;;;;;;1999.90;999.90;;;9.70;99.90;;;;;;4992564;28;20411;-69
2023/12/24 04:41:28;;;;;;;1999.90;999.90;;;9.80;99.90;;;;;;4992411;28;20432;-69
2023/12/24 04:43:57;;;;;;;1999.90;999.90;;;9.70;99.90;;;;;;4992430;28;20501;-69
2023/12/24 04:46:23;;;;;;;1999.90;999.90;;;9.70;99.90;;;;;;4992442;28;20464;-69
2023/12/24 04:48:48;;;;;;;1999.90;999.90;;;9.70;99.90;;;;;;4992609;28;20410;-69
2023/12/24 04:51:15;;;;;;;1999.90;999.90;;;9.70;99.90;;;;;;4992212;28;20433;-68
2023/12/24 04:53:41;;;;;;;1999.90;999.90;;;9.70;99.90;;;;;;4993819;28;20237;-71
2023/12/24 04:56:17;;;;;;;1999.90;999.90;;;9.70;99.90;;;;;;4992808;28;20450;-70
2023/12/24 04:58:43;;;;;;;1999.90;999.90;;;9.70;99.90;;;;;;4992668;28;20202;-70
2023/12/24 05:01:08;;;;;;;1999.90;999.90;;;9.70;99.90;;;;;;4992483;28;20476;-68
2023/12/24 05:03:34;;;;;;;1999.90;999.90;;;9.60;99.90;;;;;;4996150;28;20179;-68
2023/12/24 05:05:59;;;;;;;1999.90;999.90;;;9.70;99.90;;;;;;4996138;28;20656;-67
2023/12/24 05:08:25;;;;;;;1999.90;999.90;;;9.70;99.90;;;;;;4996410;28;20250;-67
2023/12/24 05:10:52;;;;;;;1999.90;999.90;;;9.70;99.90;;;;;;4995925;28;20200;-68
2023/12/24 05:13:18;;;;;;;1999.90;999.90;;;9.60;99.90;;;;;;4995927;28;20231;-68
2023/12/24 05:15:44;;;;;;;1999.90;999.90;;;9.60;99.90;;;;;;4996290;28;20452;-70
2023/12/24 05:18:09;;;;;;;1999.90;999.90;;;9.60;99.90;;;;;;4996156;28;20225;-68
2023/12/24 05:20:35;;;;;;;1999.90;999.90;;;9.60;99.90;;;;;;4995956;28;20207;-67
2023/12/24 05:23:00;;;;;;;1999.90;999.90;;;9.60;99.90;;;;;;4996162;28;20176;-68
2023/12/24 05:25:26;;;;;;;1999.90;999.90;;;9.60;99.90;;;;;;4996063;28;20773;-68
2023/12/24 05:27:52;;;;;;;1999.90;999.90;;;9.60;99.90;;;;;;4995722;28;20566;-68
2023/12/24 05:30:17;;;;;;;1999.90;999.90;;;9.60;99.90;;;;;;4996179;28;20191;-67
2023/12/24 05:32:43;;;;;;;1999.90;999.90;;;9.60;99.90;;;;;;4995621;28;20689;-67
2023/12/24 05:35:09;;;;;;;1999.90;999.90;;;9.80;99.90;;;;;;4996301;28;20174;-70
2023/12/24 05:37:34;;;;;;;1999.90;999.90;;;9.70;99.90;;;;;;4996570;28;20585;-68
2023/12/24 05:40:00;;;;;;;1999.90;999.90;;;9.50;99.90;;;;;;4998694;28;20414;-70
2023/12/24 05:42:26;;;;;;;1999.90;999.90;;;9.70;99.90;;;;;;4996320;28;20178;-70
2023/12/24 05:44:51;;;;;;;1999.90;999.90;;;9.60;99.90;;;;;;4996248;28;20237;-68
2023/12/24 05:47:17;;;;;;;1999.90;999.90;;;9.70;99.90;;;;;;4995752;28;20175;-69
2023/12/24 05:49:42;;;;;;;1999.90;999.90;;;9.70;99.90;;;;;;4995806;28;20220;-68
2023/12/24 05:52:08;;;;;;;1999.90;999.90;;;9.70;99.90;;;;;;4996260;28;20563;-70
2023/12/24 05:54:34;;;;;;;1999.90;999.90;;;9.70;99.90;;;;;;5010525;28;20207;-69
2023/12/24 05:56:59;;;;;;;1999.90;999.90;;;9.70;99.90;;;;;;4995290;28;20195;-67
2023/12/24 05:59:25;;;;;;;1999.90;999.90;;;10.00;99.90;;;;;;4997203;28;20170;-70
2023/12/24 06:01:51;;;;;;;1999.90;999.90;;;9.70;99.90;;;;;;4995065;28;20591;-69
2023/12/24 06:04:16;;;;;;;1999.90;999.90;;;9.70;99.90;;;;;;4995718;28;20686;-70
2023/12/24 06:06:42;;;;;;;1999.90;999.90;;;9.90;99.90;;;;;;4996368;28;20179;-68
2023/12/24 06:09:08;;;;;;;1999.90;999.90;;;9.70;99.90;;;;;;4996936;28;20544;-70
2023/12/24 06:11:33;;;;;;;1999.90;999.90;;;9.80;99.90;;;;;;5010179;28;20208;-67
2023/12/24 06:13:59;;;;;;;1999.90;999.90;;;9.80;99.90;;;;;;4993541;28;20450;-69
2023/12/24 06:16:24;;;;;;;1999.90;999.90;;;9.80;99.90;;;;;;4994966;28;20180;-67
2023/12/24 06:18:50;;;;;;;1999.90;999.90;;;9.80;99.90;;;;;;4995086;28;20172;-69
2023/12/24 06:21:16;;;;;;;1999.90;999.90;;;9.90;99.90;;;;;;4994673;28;20247;-70
2023/12/24 06:23:41;;;;;;;1999.90;999.90;;;9.80;99.90;;;;;;4994925;28;20599;-69
2023/12/24 06:26:07;;;;;;;1999.90;999.90;;;10.00;99.90;;;;;;4998334;28;20187;-69
2023/12/24 06:28:32;;;;;;;1999.90;999.90;;;9.80;99.90;;;;;;5014234;28;20187;-70
2023/12/24 06:30:59;;;;;;;1999.90;999.90;;;9.90;99.90;;;;;;4994956;28;20193;-69
2023/12/24 06:33:25;;;;;;;1999.90;999.90;;;9.90;99.90;;;;;;4994284;28;20195;-70
2023/12/24 06:35:51;;;;;;;1999.90;999.90;;;9.90;99.90;;;;;;4999238;28;20417;-70
2023/12/24 06:38:16;;;;;;;1999.90;999.90;;;9.90;99.90;;;;;;4994681;28;20446;-67
2023/12/24 06:40:42;;;;;;;1999.90;999.90;;;10.10;99.90;;;;;;4994160;28;20265;-69
2023/12/24 06:43:08;;;;;;;1999.90;999.90;;;9.90;99.90;;;;;;4994597;28;20182;-68
2023/12/24 06:45:34;;;;;;;1999.90;999.90;;;10.00;99.90;;;;;;5000161;28;20167;-68
2023/12/24 06:48:02;;;;;;;1999.90;999.90;;;10.00;99.90;;;;;;4996817;28;20429;-69
2023/12/24 06:50:28;;;;;;;1999.90;999.90;;;10.00;99.90;;;;;;4994050;28;20263;-68
2023/12/24 06:52:54;;;;;;;1999.90;999.90;;;10.00;99.90;;;;;;4996912;28;20446;-70
2023/12/24 06:55:20;;;;;;;1999.90;999.90;;;;;;;;;;5011821;28;20478;-69
2023/12/24 06:57:45;;;;;;;1999.90;999.90;;;10.00;99.90;;;;;;4992966;28;20618;-69
2023/12/24 07:00:12;;;;;;;1999.90;999.90;;;9.90;99.90;;;;;;4993808;28;20403;-68
2023/12/24 07:02:37;;;;;;;1999.90;999.90;;;10.10;99.90;;;;;;4996090;28;20830;-70
2023/12/24 07:05:03;;;;;;;1999.90;999.90;;;10.10;99.90;;;;;;5005564;28;20413;-70
2023/12/24 07:07:29;;;;;;;1999.90;999.90;;;10.10;99.90;;;;;;5002091;28;20625;-70
2023/12/24 07:09:55;;;;;;;1999.90;999.90;;;10.10;99.90;;;;;;5017896;28;20523;-68
2023/12/24 07:12:21;;;;;;;1999.90;999.90;;;10.30;99.90;;;;;;4996579;28;20189;-68
2023/12/24 07:14:47;;;;;;;1999.90;999.90;;;10.20;99.90;;;;;;4993843;28;20204;-68
2023/12/24 07:17:12;;;;;;;1999.90;999.90;;;10.30;99.90;;;;;;4994417;28;20415;-69
2023/12/24 07:19:38;;;;;;;1999.90;999.90;;;10.20;99.90;;;;;;4993808;28;20170;-69
2023/12/24 07:22:03;;;;;;;1999.90;999.90;;;10.20;99.90;;;;;;4998735;28;20213;-68
2023/12/24 07:24:29;;;;;;;1999.90;999.90;;;10.20;99.90;;;;;;4993655;28;20170;-69
2023/12/24 07:26:55;;;;;;;1999.90;999.90;;;10.20;99.90;;;;;;4994139;28;20522;-68
2023/12/24 07:29:20;;;;;;;1999.90;999.90;;;10.20;99.90;;;;;;4994636;28;20161;-69
2023/12/24 07:31:49;;;;;;;1999.90;999.90;;;10.20;99.90;;;;;;4993225;28;20195;-69
2023/12/24 07:34:14;;;;;;;1999.90;999.90;;;10.20;99.90;;;;;;4993333;28;20203;-69
2023/12/24 07:36:40;;;;;;;1999.90;999.90;;;10.20;99.90;;;;;;4994133;28;20507;-70
2023/12/24 07:39:06;;;;;;;1999.90;999.90;;;10.20;99.90;;;;;;4995802;28;20179;-68
2023/12/24 07:41:31;;;;;;;1999.90;999.90;;;10.20;99.90;;;;;;4993051;28;20184;-69
2023/12/24 07:43:57;;;;;;;1999.90;999.90;;;10.30;99.90;;;;;;4993223;28;20577;-68
2023/12/24 07:46:23;;;;;;;1999.90;999.90;;;10.30;99.90;;;;;;4993205;28;20191;-68
2023/12/24 07:48:48;;;;;;;1999.90;999.90;;;10.30;99.90;;;;;;4995412;28;20655;-71
2023/12/24 07:51:15;;;;;;;1999.90;999.90;;;10.30;99.90;;;;;;4995522;28;20261;-69
2023/12/24 07:53:40;;;;;;;1999.90;999.90;;;10.40;99.90;;;;;;5012497;28;20191;-69
2023/12/24 07:56:06;;;;;;;1999.90;999.90;;;10.40;99.90;;;;;;5013109;28;20420;-68
2023/12/24 07:58:32;;;;;;;1999.90;999.90;;;10.40;99.90;;;;;;5015597;28;20178;-70
2023/12/24 08:00:57;;;;;;;1999.90;999.90;;;10.50;99.90;;;;;;5012407;28;20563;-69
2023/12/24 08:03:23;;;;;;;1999.90;999.90;;;10.50;99.90;;;;;;5012447;28;20169;-69
2023/12/24 08:05:48;;;;;;;1999.90;999.90;;;10.50;99.90;;;;;;5009599;28;20215;-69
2023/12/24 08:08:14;;;;;;;1999.90;999.90;;;10.60;99.90;;;;;;5009434;28;20267;-68
2023/12/24 08:10:40;;;;;;;1999.90;999.90;;;;;;;;;;5014415;28;20693;-71
2023/12/24 08:13:06;;;;;;;1999.90;999.90;;;10.60;99.90;;;;;;5022215;28;20457;-71
2023/12/24 08:15:32;;;;;;;1999.90;999.90;;;10.70;99.90;;;;;;5021496;28;20915;-71
2023/12/24 08:17:57;;;;;;;1999.90;999.90;;;10.70;99.90;;;;;;5020716;28;20168;-69
2023/12/24 08:20:23;;;;;;;1999.90;999.90;;;10.70;99.90;;;;;;5012127;28;20191;-69
2023/12/24 08:22:49;;;;;;;1999.90;999.90;;;10.70;99.90;;;;;;5015433;28;20195;-68
2023/12/24 08:25:15;;;;;;;1999.90;999.90;;;10.80;99.90;;;;;;5005288;28;20736;-68
2023/12/24 08:27:41;;;;;;;1999.90;999.90;;;10.80;99.90;;;;;;5012130;28;20556;-68
2023/12/24 08:30:08;;;;;;;1999.90;999.90;;;10.70;99.90;;;;;;5012027;28;20172;-69
2023/12/24 08:32:34;;;;;;;1999.90;999.90;;;11.00;99.90;;;;;;5012059;28;20501;-69
2023/12/24 08:34:59;;;;;;;1999.90;999.90;;;10.90;99.90;;;;;;5022787;28;20455;-69
2023/12/24 08:37:25;;;;;;;1999.90;999.90;;;10.90;99.90;;;;;;5021002;28;20665;-71
2023/12/24 08:39:51;;;;;;;1999.90;999.90;;;;;;;;;;5038493;28;20199;-70
2023/12/24 08:42:17;;;;;;;1999.90;999.90;;;10.90;99.90;;;;;;5015273;28;20395;-69
2023/12/24 08:44:43;;;;;;;1999.90;999.90;;;10.80;99.90;;;;;;5014260;28;20453;-69
2023/12/24 08:47:08;;;;;;;1999.90;999.90;;;10.80;99.90;;;;;;5012828;28;20175;-68
2023/12/24 08:49:34;;;;;;;1999.90;999.90;;;10.80;99.90;;;;;;5008757;28;20172;-68
2023/12/24 08:51:59;;;;;;;1999.90;999.90;;;10.80;99.90;;;;;;5007228;28;20203;-71
2023/12/24 08:54:25;;;;;;;1999.90;999.90;;;10.80;99.90;;;;;;5003113;28;20204;-68
2023/12/24 08:56:51;;;;;;;1999.90;999.90;;;10.80;99.90;;;;;;5010788;28;20174;-69
2023/12/24 08:59:16;;;;;;;1999.90;999.90;;;10.80;99.90;;;;;;5019388;28;20184;-71
2023/12/24 09:01:42;;;;;;;1999.90;999.90;;;10.90;99.90;;;;;;5017357;28;20219;-71
2023/12/24 09:04:09;;;;;;;1999.90;999.90;;;10.90;99.90;;;;;;5013071;28;20191;-69
2023/12/24 09:06:40;;;;;;;1999.90;999.90;;;10.90;99.90;;;;;;5023904;28;20199;-71
2023/12/24 09:09:05;;;;;;;1999.90;999.90;;;12.80;99.90;;;;;;5017178;28;21021;-70
2023/12/24 09:11:31;;;;;;;1999.90;999.90;;;11.00;99.90;;;;;;5011329;28;20518;-69
2023/12/24 09:13:57;;;;;;;1999.90;999.90;;;11.00;99.90;;;;;;5009103;28;20293;-69
2023/12/24 09:16:22;;;;;;;1999.90;999.90;;;11.00;99.90;;;;;;5008513;28;20171;-70
2023/12/24 09:18:48;;;;;;;1999.90;999.90;;;10.90;99.90;;;;;;5013034;28;20223;-69
2023/12/24 09:21:13;;;;;;;1999.90;999.90;;;10.90;99.90;;;;;;5065668;22;20223;-74
2023/12/24 09:23:39;;;;;;;1999.90;999.90;;;10.90;99.90;;;;;;5031180;28;20186;-74
2023/12/24 09:26:05;;;;;;;1999.90;999.90;;;10.90;99.90;;;;;;5031043;28;20525;-74
2023/12/24 09:28:30;;;;;;;1999.90;999.90;;;10.90;99.90;;;;;;5031132;28;20186;-75
2023/12/24 09:30:57;;;;;;;1999.90;999.90;;;10.90;99.90;;;;;;5031049;28;20186;-74
2023/12/24 09:33:22;;;;;;;1999.90;999.90;;;10.90;99.90;;;;;;5030687;28;20212;-76
2023/12/24 09:35:49;;;;;;;1999.90;999.90;;;10.90;99.90;;;;;;5031217;28;20410;-74
2023/12/24 09:38:15;;;;;;;1999.90;999.90;;;11.00;99.90;;;;;;5014883;28;20191;-75
2023/12/24 09:40:41;;;;;;;1999.90;999.90;;;10.90;99.90;;;;;;5011382;28;20407;-75
2023/12/24 09:43:06;;;;;;;1999.90;999.90;;;10.90;99.90;;;;;;5012295;28;20179;-75
2023/12/24 09:45:36;;;;;;;1999.90;999.90;;;11.00;99.90;;;;;;5031071;28;20220;-75
2023/12/24 09:48:02;;;;;;;1999.90;999.90;;;11.00;99.90;;;;;;5031393;28;20171;-75
2023/12/24 09:50:27;;;;;;;1999.90;999.90;;;10.90;99.90;;;;;;5029274;28;20445;-75
2023/12/24 09:52:53;;;;;;;1999.90;999.90;;;11.00;99.90;;;;;;5029449;28;20458;-75
2023/12/24 09:55:19;;;;;;;1999.90;999.90;;;11.00;99.90;;;;;;5030958;28;20179;-76
2023/12/24 09:57:45;;;;;;;1999.90;999.90;;;11.00;99.90;;;;;;5029825;28;20167;-75
2023/12/24 10:00:12;;;;;;;1999.90;999.90;;;11.00;99.90;;;;;;5032569;28;20426;-76
2023/12/24 10:02:37;;;;;;;1999.90;999.90;;;11.00;99.90;;;;;;5033987;28;20229;-76
2023/12/24 10:05:04;;;;;;;1999.90;999.90;;;11.00;99.90;;;;;;5031472;28;20904;-75
2023/12/24 10:07:39;;;;;;;1999.90;999.90;;;11.00;99.90;;;;;;5032360;28;20667;-75
2023/12/24 10:10:07;;;;;;;1999.90;999.90;;;11.00;99.90;;;;;;5033581;28;20881;-76
2023/12/24 10:12:33;;;;;;;1999.90;999.90;;;11.00;99.90;;;;;;5028710;28;20800;-76
2023/12/24 10:15:00;;;;;;;1999.90;999.90;;;11.00;99.90;;;;;;5020115;28;20415;-76
2023/12/24 10:17:33;;;;;;;1999.90;999.90;;;11.00;99.90;;;;;;5014004;28;20172;-76
2023/12/24 10:20:02;;;;;;;1999.90;999.90;;;11.00;99.90;;;;;;5013589;28;20471;-76
2023/12/24 10:22:27;;;;;;;1999.90;999.90;;;11.00;99.90;;;;;;5014893;28;20460;-76
2023/12/24 10:25:06;;;;;;;1999.90;999.90;;;11.00;99.90;;;;;;5033507;28;20409;-76
2023/12/24 10:27:33;;;;;;;1999.90;999.90;;;11.00;99.90;;;;;;5033177;28;20176;-75
2023/12/24 10:30:10;;;;;;;1999.90;999.90;;;11.00;99.90;;;;;;5033484;28;20520;-76
2023/12/24 10:32:36;;;;;;;1999.90;999.90;;;11.00;99.90;;;;;;5033186;28;20446;-76
2023/12/24 10:35:02;;;;;;;1999.90;999.90;;;11.00;99.90;;;;;;5033095;28;20779;-76
2023/12/24 10:37:29;;;;;;;1999.90;999.90;;;11.00;99.90;;;;;;5031966;28;20401;-76
2023/12/24 10:40:15;;;;;;;1999.90;999.90;;;11.10;99.90;;;;;;5032961;28;20936;-75
2023/12/24 10:42:41;;;;;;;1999.90;999.90;;;11.10;99.90;;;;;;5031124;28;20499;-75
2023/12/24 10:45:11;;;;;;;1999.90;999.90;;;11.10;99.90;;;;;;5018684;28;20407;-75
2023/12/24 10:47:38;;;;;;;1999.90;999.90;;;11.10;99.90;;;;;;5013461;28;20182;-75
2023/12/24 10:50:04;;;;;;;1999.90;999.90;;;11.10;99.90;;;;;;5012901;28;21062;-75
2023/12/24 10:52:30;;;;;;;1999.90;999.90;;;11.20;99.90;;;;;;5013137;28;20423;-75
2023/12/24 10:54:58;;;;;;;1999.90;999.90;;;11.20;99.90;;;;;;5023345;28;20425;-77
2023/12/24 10:57:42;;;;;;;1999.90;999.90;;;11.20;99.90;;;;;;5027183;28;20545;-77
2023/12/24 11:00:16;;;;;;;1999.90;999.90;;;11.20;99.90;;;;;;5027349;28;20449;-75
2023/12/24 11:02:47;;;;;;;1999.90;999.90;;;11.20;99.90;;;;;;5032243;28;20515;-76
2023/12/24 11:05:45;;;;;;;1999.90;999.90;;;11.30;99.90;;;;;;5017460;28;20930;-75
2023/12/24 11:08:28;;;;;;;1999.90;999.90;;;11.30;99.90;;;;;;5013080;28;20415;-77
2023/12/24 11:10:54;;;;;;;1999.90;999.90;;;11.30;99.90;;;;;;5016187;28;20438;-76
2023/12/24 11:13:44;;;;;;;1999.90;999.90;;;11.40;99.90;;;;;;5032548;28;20984;-75
2023/12/24 11:16:10;;;;;;;1999.90;999.90;;;11.40;99.90;;;;;;5007752;28;20517;-75
2023/12/24 11:18:47;;;;;;;1999.90;999.90;;;11.40;99.90;;;;;;5014755;28;20490;-75
2023/12/24 11:21:18;;;;;;;1999.90;999.90;;;11.50;99.90;;;;;;5032042;28;20216;-76
2023/12/24 11:24:08;;;;;;;1999.90;999.90;;;11.50;99.90;;;;;;5032355;28;20433;-74
2023/12/24 11:26:33;;;;;;;1999.90;999.90;;;11.50;99.90;;;;;;5028002;28;20970;-75
2023/12/24 11:29:00;;;;;;;1999.90;999.90;;;11.50;99.90;;;;;;5030594;28;20509;-75
2023/12/24 11:31:27;;;;;;;1999.90;999.90;;;11.50;99.90;;;;;;5031736;28;20718;-75
2023/12/24 11:33:56;;;;;;;1999.90;999.90;;;11.50;99.90;;;;;;5032642;28;20585;-76
2023/12/24 11:36:24;;;;;;;1999.90;999.90;;;11.50;99.90;;;;;;5032392;28;20798;-75
2023/12/24 11:38:57;;;;;;;1999.90;999.90;;;11.50;99.90;;;;;;5032125;28;20415;-75
2023/12/24 11:41:23;;;;;;;1999.90;999.90;;;11.50;99.90;;;;;;5031988;28;20423;-74
2023/12/24 11:43:58;;;;;;;1999.90;999.90;;;11.50;99.90;;;;;;5032315;28;20438;-77
2023/12/24 11:46:29;;;;;;;1999.90;999.90;;;11.50;99.90;;;;;;5032427;28;20403;-75
2023/12/24 11:48:56;;;;;;;1999.90;999.90;;;11.50;99.90;;;;;;5032393;28;20832;-74
2023/12/24 11:51:23;;;;;;;1999.90;999.90;;;11.50;99.90;;;;;;5030712;28;20976;-76
2023/12/24 11:53:56;;;;;;;1999.90;999.90;;;11.50;99.90;;;;;;5032276;28;20485;-74
2023/12/24 11:56:23;;;;;;;1999.90;999.90;;;11.60;99.90;;;;;;5031115;28;20472;-75
2023/12/24 11:58:48;;;;;;;1999.90;999.90;;;11.60;99.90;;;;;;5032286;28;20413;-75
2023/12/24 12:01:20;;;;;;;1999.90;999.90;;;11.60;99.90;;;;;;5031464;28;20430;-72